Time;durP1;ratioP1;P1;durP2;ratioP2;P2;SDS_P1;SDS_P2;PMS_P1;PMS_P2;Temp;Humidity;BMP_temperature;BMP_pressure;BME280_temperature;BME280_humidity;BME280_pressure;Samples;Min_cycle;Max_cycle;Signal;HPM_P1;HPM_P2
2022/11/02 00:02:44;;;;;;;11.63;10.33;;;13.40;96.80;;;;;;2615577;54;20405;-77
2022/11/02 00:08:32;;;;;;;11.30;9.50;;;13.40;96.70;;;;;;2615573;54;20158;-76
2022/11/02 00:14:20;;;;;;;10.70;9.80;;;13.50;95.60;;;;;;2615653;54;20142;-75
2022/11/02 00:20:09;;;;;;;13.03;9.90;;;13.70;95.20;;;;;;2615920;54;20153;-75
2022/11/02 00:26:00;;;;;;;14.37;8.97;;;13.70;94.90;;;;;;2615683;39;20929;-75
2022/11/02 00:31:48;;;;;;;9.33;8.63;;;13.60;97.50;;;;;;2615907;54;20414;-76
2022/11/02 00:37:36;;;;;;;10.00;8.80;;;13.60;96.50;;;;;;2616209;54;20126;-78
2022/11/02 00:43:23;;;;;;;10.47;9.53;;;13.70;97.90;;;;;;2618071;54;20362;-79
2022/11/02 00:49:11;;;;;;;9.77;8.70;;;13.60;98.00;;;;;;2616034;54;20139;-80
2022/11/02 00:54:58;;;;;;;12.20;8.10;;;13.60;98.50;;;;;;2617857;54;20622;-81
2022/11/02 00:58:14;;;;;;;10.60;9.60;;;13.70;98.20;;;;;;2617022;54;20827;-79
2022/11/02 01:00:39;;;;;;;9.77;8.67;;;13.60;98.70;;;;;;2616456;47;20170;-80
2022/11/02 01:06:27;;;;;;;11.07;8.80;;;13.60;99.60;;;;;;2617724;54;20137;-81
2022/11/02 01:12:15;;;;;;;9.43;8.47;;;13.60;99.90;;;;;;2615806;54;20146;-77
2022/11/02 01:18:03;;;;;;;9.13;8.47;;;13.60;99.90;;;;;;2615926;54;20399;-76
2022/11/02 01:23:51;;;;;;;10.37;9.10;;;13.50;99.90;;;;;;2615563;54;20150;-81
2022/11/02 01:29:38;;;;;;;10.03;9.10;;;13.50;99.90;;;;;;2616741;54;20126;-78
2022/11/02 01:35:26;;;;;;;9.80;9.10;;;13.50;99.90;;;;;;2615931;54;20129;-78
2022/11/02 01:41:16;;;;;;;12.67;9.10;;;13.30;99.90;;;;;;2615570;39;20551;-78
2022/11/02 01:53:36;;;;;;;9.43;8.03;;;13.40;99.90;;;;;;2616802;54;20507;-78
2022/11/02 02:11:53;;;;;;;12.43;9.23;;;13.60;99.90;;;;;;2613471;39;20717;-74
2022/11/02 02:17:50;;;;;;;12.60;9.43;;;13.60;99.90;;;;;;2614984;54;20130;-74
2022/11/02 02:24:15;;;;;;;11.57;8.10;;;13.40;99.90;;;;;;2614919;39;20802;-80
2022/11/02 02:27:06;;;;;;;8.73;8.03;;;13.40;99.90;;;;;;2611571;54;20443;-79
2022/11/02 02:30:06;;;;;;;11.10;8.70;;;13.40;99.90;;;;;;2617478;54;20432;-88
2022/11/02 02:32:55;;;;;;;12.43;9.67;;;13.30;99.90;;;;;;2617405;54;20440;-86
2022/11/02 02:36:01;;;;;;;8.60;7.90;;;13.20;99.90;;;;;;2617555;54;20435;-88
2022/11/02 02:38:37;;;;;;;11.43;7.83;;;13.10;99.90;;;;;;2614840;46;20461;-79
2022/11/02 02:41:17;;;;;;;9.43;8.60;;;13.10;99.90;;;;;;2612912;54;21481;-79
2022/11/02 02:43:48;;;;;;;10.53;8.77;;;12.90;99.90;;;;;;2616104;54;20526;-82
2022/11/02 02:46:39;;;;;;;9.10;8.50;;;13.10;99.90;;;;;;2617255;54;20446;-82
2022/11/02 02:49:06;;;;;;;18.27;9.03;;;13.00;99.90;;;;;;2614242;47;20426;-79
2022/11/02 02:51:34;;;;;;;12.53;8.90;;;12.90;99.90;;;;;;2612749;47;20435;-77
2022/11/02 02:54:07;;;;;;;12.17;9.33;;;13.00;99.90;;;;;;2613172;54;20433;-81
2022/11/02 02:56:44;;;;;;;10.00;9.20;;;13.00;99.90;;;;;;2613675;54;20454;-80
2022/11/02 02:59:18;;;;;;;11.73;8.27;;;13.10;99.90;;;;;;2615102;54;20427;-80
2022/11/02 03:01:44;;;;;;;13.93;9.20;;;13.10;99.90;;;;;;2615634;54;20413;-78
2022/11/02 03:04:13;;;;;;;9.80;7.80;;;13.00;99.90;;;;;;2616518;54;20459;-87
2022/11/02 03:06:43;;;;;;;8.83;8.10;;;12.90;99.90;;;;;;2619635;54;20438;-81
2022/11/02 03:09:26;;;;;;;10.33;8.93;;;13.10;99.90;;;;;;2614968;54;20431;-80
2022/11/02 03:12:29;;;;;;;13.83;8.80;;;13.20;99.90;;;;;;2614406;54;20431;-82
2022/11/02 03:15:23;;;;;;;7.57;7.13;;;13.10;99.90;;;;;;2614659;39;21316;-77
2022/11/02 03:18:04;;;;;;;10.87;8.60;;;13.20;99.90;;;;;;2613668;54;20455;-78
2022/11/02 03:20:56;;;;;;;10.33;9.30;;;13.20;99.90;;;;;;2615612;54;20467;-85
2022/11/02 03:23:56;;;;;;;12.10;7.97;;;13.10;99.90;;;;;;2618455;54;20451;-86
2022/11/02 03:26:27;;;;;;;10.77;9.97;;;13.20;99.90;;;;;;2615595;39;21664;-78
2022/11/02 03:29:08;;;;;;;12.30;8.50;;;13.10;99.90;;;;;;2612046;47;21071;-79
2022/11/02 03:31:59;;;;;;;10.80;8.13;;;13.00;99.90;;;;;;2615317;54;20920;-77
2022/11/02 03:34:24;;;;;;;9.57;8.63;;;13.00;99.90;;;;;;2613884;47;20440;-78
2022/11/02 03:36:53;;;;;;;12.93;8.90;;;12.90;99.90;;;;;;2613968;54;20950;-78
2022/11/02 03:39:27;;;;;;;7.67;7.13;;;12.90;99.90;;;;;;2613812;31;20635;-77
2022/11/02 03:41:55;;;;;;;8.40;7.60;;;12.70;99.90;;;;;;2613755;54;20427;-77
2022/11/02 03:44:24;;;;;;;8.43;7.90;;;12.80;99.90;;;;;;2612836;54;20456;-78
2022/11/02 03:46:53;;;;;;;9.80;7.50;;;12.80;99.90;;;;;;2612447;54;20420;-80
2022/11/02 03:49:22;;;;;;;8.73;7.97;;;12.90;99.90;;;;;;2613527;54;20423;-80
2022/11/02 03:51:49;;;;;;;13.27;8.30;;;12.80;99.90;;;;;;2618577;39;20853;-87
2022/11/02 03:54:28;;;;;;;10.03;7.97;;;12.80;99.90;;;;;;2620099;54;20407;-87
2022/11/02 03:56:58;;;;;;;9.17;8.10;;;12.80;99.90;;;;;;2618016;54;20411;-88
2022/11/02 03:59:24;;;;;;;9.00;8.27;;;12.70;99.90;;;;;;2618248;47;20474;-89
2022/11/02 04:01:51;;;;;;;7.87;7.27;;;12.90;99.90;;;;;;2615895;46;20420;-84
2022/11/02 04:04:17;;;;;;;10.70;8.33;;;12.90;99.90;;;;;;2616463;47;20159;-86
2022/11/02 04:06:46;;;;;;;11.77;8.87;;;12.80;99.90;;;;;;2613498;54;20416;-79
2022/11/02 04:09:11;;;;;;;8.80;8.10;;;13.00;99.90;;;;;;2613285;54;20423;-77
2022/11/02 04:14:38;;;;;;;14.50;7.87;;;13.00;99.90;;;;;;2613019;47;20167;-82
2022/11/02 04:19:53;;;;;;;8.93;8.17;;;12.90;99.90;;;;;;2615103;39;20795;-88
2022/11/02 04:25:14;;;;;;;9.77;8.47;;;13.00;99.90;;;;;;2617195;54;20418;-79
2022/11/02 04:27:41;;;;;;;13.13;8.17;;;12.90;99.90;;;;;;2612464;54;21094;-80
2022/11/02 04:30:07;;;;;;;9.43;7.60;;;12.90;99.90;;;;;;2613227;39;21214;-78
2022/11/02 04:35:33;;;;;;;8.90;7.53;;;12.80;99.90;;;;;;2614195;39;20912;-80
2022/11/02 04:40:43;;;;;;;9.70;8.40;;;13.00;99.90;;;;;;2614157;54;21042;-79
2022/11/02 04:43:09;;;;;;;7.97;7.47;;;12.90;99.90;;;;;;2613342;54;20431;-79
2022/11/02 04:45:35;;;;;;;8.30;7.63;;;13.20;99.90;;;;;;2617676;54;20475;-86
2022/11/02 04:48:05;;;;;;;9.07;7.50;;;13.20;99.90;;;;;;2625514;47;20151;-84
2022/11/02 04:50:31;;;;;;;9.53;7.77;;;13.20;99.90;;;;;;2621530;54;20515;-79
2022/11/02 04:52:59;;;;;;;8.33;7.43;;;13.30;99.90;;;;;;2617323;47;20423;-81
2022/11/02 04:55:28;;;;;;;8.73;7.93;;;13.10;99.90;;;;;;2616670;54;20428;-79
2022/11/02 04:57:54;;;;;;;8.00;7.50;;;13.20;99.90;;;;;;2615354;54;21348;-79
2022/11/02 05:00:20;;;;;;;12.07;8.30;;;13.10;99.90;;;;;;2615844;47;20466;-80
2022/11/02 05:02:47;;;;;;;10.83;8.70;;;13.10;99.90;;;;;;2614315;54;20159;-79
2022/11/02 05:05:14;;;;;;;8.80;7.87;;;13.10;99.90;;;;;;2614798;54;20435;-78
2022/11/02 05:07:40;;;;;;;8.10;7.50;;;13.20;99.90;;;;;;2615821;47;20466;-77
2022/11/02 05:10:05;;;;;;;8.57;7.87;;;13.10;99.90;;;;;;2618635;54;20408;-87
2022/11/02 05:12:31;;;;;;;10.40;8.03;;;13.10;99.90;;;;;;2627416;54;20358;-88
2022/11/02 05:14:57;;;;;;;9.23;8.33;;;13.10;99.90;;;;;;2622555;54;20412;-79
2022/11/02 05:17:22;;;;;;;11.77;8.70;;;13.10;99.90;;;;;;2615107;54;20163;-78
2022/11/02 05:19:48;;;;;;;8.13;7.53;;;13.10;99.90;;;;;;2615108;54;20708;-77
2022/11/02 05:22:14;;;;;;;9.10;8.17;;;13.10;99.90;;;;;;2614439;54;20214;-78
2022/11/02 05:24:39;;;;;;;13.07;8.10;;;13.00;99.90;;;;;;2615356;47;20847;-81
2022/11/02 05:27:05;;;;;;;8.90;7.80;;;13.10;99.90;;;;;;2616338;54;20154;-80
2022/11/02 05:29:31;;;;;;;9.13;8.30;;;13.10;99.90;;;;;;2616388;47;20201;-77
2022/11/02 05:31:57;;;;;;;16.33;8.20;;;13.00;99.90;;;;;;2614387;54;20171;-76
2022/11/02 05:34:22;;;;;;;10.17;9.20;;;13.10;99.90;;;;;;2614389;39;23853;-77
2022/11/02 05:36:48;;;;;;;9.47;8.67;;;13.20;99.90;;;;;;2615645;54;20481;-81
2022/11/02 05:39:14;;;;;;;8.43;7.63;;;13.10;99.90;;;;;;2615524;54;20170;-79
2022/11/02 05:41:40;;;;;;;21.73;9.57;;;13.10;99.90;;;;;;2615410;54;20423;-79
2022/11/02 05:44:06;;;;;;;8.80;8.10;;;13.10;99.90;;;;;;2615130;47;20427;-80
2022/11/02 05:46:32;;;;;;;12.50;10.90;;;13.00;99.90;;;;;;2615775;54;20182;-78
2022/11/02 05:48:58;;;;;;;9.70;9.00;;;13.00;99.90;;;;;;2615478;47;20189;-77
2022/11/02 05:51:24;;;;;;;8.43;7.73;;;13.10;99.90;;;;;;2622644;54;20435;-84
2022/11/02 05:53:49;;;;;;;14.67;9.97;;;13.00;99.90;;;;;;2621362;54;20150;-88
2022/11/02 05:56:15;;;;;;;8.90;7.83;;;13.00;99.90;;;;;;2616877;54;20185;-78
2022/11/02 05:58:41;;;;;;;21.23;9.03;;;13.10;99.90;;;;;;2614816;54;20151;-78
2022/11/02 06:01:07;;;;;;;8.70;7.87;;;13.00;99.90;;;;;;2615565;54;20178;-77
2022/11/02 06:03:33;;;;;;;8.67;8.00;;;12.90;99.90;;;;;;2616062;54;20147;-80
2022/11/02 06:06:09;;;;;;;12.60;7.80;;;12.90;99.90;;;;;;2616631;54;20410;-78
2022/11/02 06:08:37;;;;;;;14.40;8.50;;;12.90;99.90;;;;;;2616371;54;20408;-80
2022/11/02 06:11:15;;;;;;;8.27;7.57;;;12.90;99.90;;;;;;2614719;54;20987;-82
2022/11/02 06:13:41;;;;;;;9.90;7.90;;;12.80;99.90;;;;;;2615328;54;20419;-83
2022/11/02 06:16:09;;;;;;;11.17;8.67;;;12.90;99.90;;;;;;2619478;54;20429;-88
2022/11/02 06:18:35;;;;;;;8.90;8.03;;;12.80;99.90;;;;;;2617670;47;20418;-87
2022/11/02 06:21:02;;;;;;;8.67;7.77;;;12.70;99.90;;;;;;2615597;54;20416;-78
2022/11/02 06:23:28;;;;;;;9.93;7.80;;;12.70;99.90;;;;;;2611504;54;20470;-79
2022/11/02 06:25:56;;;;;;;8.77;7.90;;;12.70;99.90;;;;;;2614620;54;20480;-78
2022/11/02 06:28:23;;;;;;;9.80;7.67;;;12.70;99.90;;;;;;2614379;54;20411;-79
2022/11/02 06:30:49;;;;;;;8.83;7.97;;;12.80;99.90;;;;;;2613637;54;20514;-80
2022/11/02 06:33:16;;;;;;;9.47;7.50;;;12.60;99.90;;;;;;2613421;54;20470;-80
2022/11/02 06:35:46;;;;;;;9.03;8.23;;;12.70;99.90;;;;;;2614305;54;20419;-82
2022/11/02 06:38:12;;;;;;;8.97;8.40;;;12.70;99.90;;;;;;2613385;54;20419;-78
2022/11/02 06:40:39;;;;;;;8.60;7.40;;;12.80;99.90;;;;;;2613249;54;20534;-80
2022/11/02 06:43:04;;;;;;;10.20;8.33;;;12.80;99.90;;;;;;2613426;47;20450;-79
2022/11/02 06:45:30;;;;;;;11.03;8.93;;;12.90;99.90;;;;;;2613820;54;20427;-79
2022/11/02 06:47:56;;;;;;;9.83;8.90;;;12.90;99.90;;;;;;2612748;39;20918;-78
2022/11/02 06:50:23;;;;;;;13.33;9.60;;;12.90;99.90;;;;;;2614051;47;20167;-80
2022/11/02 06:52:50;;;;;;;11.97;9.57;;;12.80;99.90;;;;;;2613927;47;20167;-78
2022/11/02 06:55:16;;;;;;;22.37;9.90;;;12.90;99.90;;;;;;2614927;54;20431;-87
2022/11/02 06:57:44;;;;;;;10.77;9.77;;;12.80;99.90;;;;;;2617885;47;20430;-84
2022/11/02 07:00:17;;;;;;;8.83;8.13;;;12.90;99.90;;;;;;2617953;54;20507;-82
2022/11/02 07:02:58;;;;;;;8.27;7.67;;;12.80;99.90;;;;;;2614291;54;20495;-80
2022/11/02 07:05:24;;;;;;;8.10;7.50;;;12.80;99.90;;;;;;2615614;47;20981;-86
2022/11/02 07:07:52;;;;;;;9.23;8.47;;;12.90;99.90;;;;;;2619434;54;20444;-87
2022/11/02 07:10:18;;;;;;;11.20;8.90;;;12.80;99.90;;;;;;2619692;54;20163;-79
2022/11/02 07:12:44;;;;;;;17.77;8.00;;;12.90;99.90;;;;;;2612110;54;20515;-79
2022/11/02 07:15:10;;;;;;;9.30;8.40;;;12.90;99.90;;;;;;2611595;54;20913;-80
2022/11/02 07:17:40;;;;;;;10.77;9.10;;;12.90;99.90;;;;;;2612927;54;20514;-80
2022/11/02 07:20:09;;;;;;;14.90;8.80;;;12.90;99.90;;;;;;2615171;47;20186;-87
2022/11/02 07:22:35;;;;;;;8.97;8.20;;;12.90;99.90;;;;;;2617810;54;20439;-87
2022/11/02 07:25:00;;;;;;;13.97;8.40;;;12.90;99.90;;;;;;2617214;47;20418;-88
2022/11/02 07:27:26;;;;;;;8.23;7.83;;;12.90;99.90;;;;;;2618300;54;20431;-86
2022/11/02 07:29:51;;;;;;;8.90;8.10;;;12.90;99.90;;;;;;2617830;54;20154;-77
2022/11/02 07:32:17;;;;;;;9.27;8.43;;;12.90;99.90;;;;;;2614094;54;20163;-79
2022/11/02 07:34:43;;;;;;;8.60;7.70;;;12.90;99.90;;;;;;2615568;54;20250;-77
2022/11/02 07:37:08;;;;;;;8.13;7.70;;;12.90;99.90;;;;;;2616264;47;20741;-79
2022/11/02 07:39:34;;;;;;;10.13;8.40;;;12.80;99.90;;;;;;2617027;54;20162;-79
2022/11/02 07:42:00;;;;;;;9.10;8.40;;;12.80;99.90;;;;;;2614142;54;20189;-77
2022/11/02 07:44:25;;;;;;;9.87;8.90;;;12.80;99.90;;;;;;2613332;47;20166;-78
2022/11/02 07:46:51;;;;;;;10.43;9.07;;;12.80;99.90;;;;;;2614185;47;20173;-78
2022/11/02 07:49:17;;;;;;;11.40;8.57;;;12.90;99.90;;;;;;2614041;54;20178;-79
2022/11/02 07:51:42;;;;;;;16.50;9.93;;;12.90;99.90;;;;;;2614069;54;20163;-77
2022/11/02 07:54:08;;;;;;;12.80;8.33;;;12.90;99.90;;;;;;2614052;47;20190;-80
2022/11/02 07:56:33;;;;;;;10.13;9.43;;;12.90;99.90;;;;;;2618229;54;20158;-85
2022/11/02 07:58:59;;;;;;;11.57;10.40;;;13.00;99.90;;;;;;2621280;54;20155;-86
2022/11/02 08:01:25;;;;;;;8.03;7.43;;;13.00;99.90;;;;;;2617897;54;20154;-83
2022/11/02 08:03:51;;;;;;;10.07;9.13;;;13.20;99.90;;;;;;2621619;54;20211;-88
2022/11/02 08:06:16;;;;;;;10.33;9.30;;;13.30;99.90;;;;;;2616037;54;20155;-77
2022/11/02 08:08:42;;;;;;;13.33;10.17;;;13.40;99.30;;;;;;2613103;47;20170;-80
2022/11/02 08:11:08;;;;;;;11.50;10.27;;;13.30;99.90;;;;;;2611689;54;20147;-77
2022/11/02 08:13:36;;;;;;;11.57;10.40;;;13.40;98.40;;;;;;2611334;54;20170;-77
2022/11/02 08:16:01;;;;;;;10.50;9.57;;;14.70;82.20;;;;;;2612201;54;20428;-76
2022/11/02 08:18:28;;;;;;;10.40;9.37;;;14.70;75.60;;;;;;2613385;47;20432;-77
2022/11/02 08:20:55;;;;;;;13.90;9.90;;;14.50;82.10;;;;;;2613969;54;20242;-81
2022/11/02 08:23:21;;;;;;;11.03;9.30;;;14.00;85.80;;;;;;2612473;54;20462;-81
2022/11/02 08:25:49;;;;;;;12.90;10.73;;;15.00;71.00;;;;;;2613472;47;20419;-84
2022/11/02 08:28:18;;;;;;;10.00;9.10;;;14.80;70.40;;;;;;2615002;54;20159;-88
2022/11/02 08:30:43;;;;;;;9.83;8.93;;;14.00;83.80;;;;;;2614692;54;20450;-78
2022/11/02 08:33:14;;;;;;;12.00;9.23;;;13.80;87.30;;;;;;2612574;54;20431;-78
2022/11/02 08:35:41;;;;;;;12.50;9.43;;;13.80;87.00;;;;;;2614475;54;20151;-80
2022/11/02 08:38:08;;;;;;;10.53;9.37;;;13.70;88.40;;;;;;2613132;54;20431;-77
2022/11/02 08:40:34;;;;;;;10.20;9.37;;;13.60;86.10;;;;;;2613679;54;21167;-79
2022/11/02 08:43:05;;;;;;;11.70;9.20;;;13.90;87.60;;;;;;2615132;54;20481;-82
2022/11/02 08:45:35;;;;;;;10.77;9.67;;;13.60;90.40;;;;;;2614378;54;20384;-81
2022/11/02 08:48:01;;;;;;;11.03;10.00;;;13.90;86.50;;;;;;2615010;54;20419;-81
2022/11/02 08:50:27;;;;;;;15.20;11.30;;;13.60;88.90;;;;;;2614277;47;20997;-80
2022/11/02 08:52:53;;;;;;;10.40;9.60;;;13.60;90.90;;;;;;2614494;54;20466;-78
2022/11/02 08:55:19;;;;;;;14.77;9.00;;;13.70;90.30;;;;;;2613603;54;20163;-80
2022/11/02 08:57:55;;;;;;;9.47;8.77;;;14.00;83.60;;;;;;2612129;54;20702;-80
2022/11/02 09:00:25;;;;;;;12.40;11.33;;;14.00;81.30;;;;;;2613231;47;20415;-81
2022/11/02 09:03:02;;;;;;;10.93;9.37;;;15.10;68.60;;;;;;2613827;54;20427;-78
2022/11/02 09:05:30;;;;;;;11.80;10.60;;;14.60;64.00;;;;;;2614360;54;20415;-76
2022/11/02 09:08:01;;;;;;;12.43;11.37;;;13.70;72.90;;;;;;2614782;54;20423;-80
2022/11/02 09:10:28;;;;;;;12.13;10.10;;;13.90;78.30;;;;;;2614550;54;20419;-79
2022/11/02 09:12:55;;;;;;;10.57;9.73;;;13.70;77.00;;;;;;2614321;47;20418;-81
2022/11/02 09:15:20;;;;;;;12.30;10.30;;;13.70;80.60;;;;;;2614198;54;20416;-80
2022/11/02 09:17:47;;;;;;;11.37;10.33;;;13.80;80.90;;;;;;2614700;54;20450;-78
2022/11/02 09:20:14;;;;;;;11.60;10.50;;;14.20;76.80;;;;;;2615134;54;20209;-80
2022/11/02 09:22:40;;;;;;;10.27;9.30;;;14.70;63.80;;;;;;2616450;47;20447;-80
2022/11/02 09:25:06;;;;;;;10.83;9.77;;;15.70;54.10;;;;;;2615420;54;20411;-80
2022/11/02 09:27:32;;;;;;;11.80;9.93;;;15.90;46.60;;;;;;2612402;54;20163;-80
2022/11/02 09:29:57;;;;;;;15.13;10.50;;;14.70;54.70;;;;;;2616023;39;21051;-82
2022/11/02 09:32:23;;;;;;;9.90;9.20;;;14.70;53.30;;;;;;2615264;54;20158;-81
2022/11/02 09:34:49;;;;;;;10.33;9.43;;;14.20;60.00;;;;;;2616949;39;20643;-84
2022/11/02 09:37:15;;;;;;;11.40;10.60;;;15.40;52.10;;;;;;2623813;46;20210;-88
2022/11/02 09:39:41;;;;;;;11.00;10.00;;;15.10;50.60;;;;;;2623054;54;20474;-79
2022/11/02 09:42:17;;;;;;;12.67;9.63;;;15.30;53.60;;;;;;2615374;39;20893;-77
2022/11/02 09:44:51;;;;;;;11.73;10.77;;;16.50;43.60;;;;;;2615698;46;20170;-88
2022/11/02 09:47:18;;;;;;;11.20;10.27;;;14.60;51.00;;;;;;2621410;54;20514;-88
2022/11/02 09:49:44;;;;;;;11.67;10.77;;;15.20;49.30;;;;;;2620992;47;20424;-84
2022/11/02 09:52:23;;;;;;;13.17;10.50;;;16.60;42.20;;;;;;2620760;46;20447;-83
2022/11/02 09:54:52;;;;;;;11.63;10.77;;;16.80;39.80;;;;;;2616348;39;20932;-88
2022/11/02 09:57:32;;;;;;;11.17;10.17;;;17.30;36.50;;;;;;2620612;54;20442;-88
2022/11/02 09:59:58;;;;;;;14.47;10.90;;;16.00;38.30;;;;;;2616790;54;20470;-77
2022/11/02 10:02:42;;;;;;;11.00;10.30;;;16.30;36.30;;;;;;2610200;47;20994;-77
2022/11/02 10:05:20;;;;;;;16.07;10.67;;;15.80;39.60;;;;;;2613138;39;20869;-78
2022/11/02 10:08:14;;;;;;;11.03;10.13;;;16.00;37.00;;;;;;2612002;54;20423;-78
2022/11/02 10:11:13;;;;;;;13.60;12.40;;;16.30;37.60;;;;;;2613770;54;21053;-79
2022/11/02 10:13:49;;;;;;;12.97;11.10;;;17.20;32.90;;;;;;2611887;54;20445;-78
2022/11/02 10:16:20;;;;;;;14.93;11.90;;;18.10;30.40;;;;;;2615082;54;20427;-82
2022/11/02 10:18:49;;;;;;;18.83;11.70;;;17.40;32.30;;;;;;2615036;54;20486;-82
2022/11/02 10:21:37;;;;;;;12.23;11.37;;;18.10;29.90;;;;;;2618288;54;20419;-87
2022/11/02 10:24:20;;;;;;;11.87;11.07;;;17.80;29.50;;;;;;2618767;54;20408;-89
2022/11/02 10:26:47;;;;;;;12.07;11.07;;;16.80;31.50;;;;;;2613132;54;20427;-76
2022/11/02 10:29:32;;;;;;;12.67;11.57;;;16.40;32.90;;;;;;2613427;54;20415;-79
2022/11/02 10:31:58;;;;;;;11.30;10.57;;;16.90;33.70;;;;;;2614202;54;20415;-80
2022/11/02 10:34:26;;;;;;;13.87;12.57;;;17.10;31.30;;;;;;2614353;54;20495;-78
2022/11/02 10:36:56;;;;;;;12.53;11.53;;;16.80;32.80;;;;;;2615327;39;20357;-80
2022/11/02 10:39:38;;;;;;;12.03;10.60;;;16.90;28.40;;;;;;2615130;54;20489;-82
2022/11/02 10:42:33;;;;;;;12.67;11.83;;;17.80;28.90;;;;;;2614269;54;20432;-81
2022/11/02 10:45:26;;;;;;;13.60;11.33;;;16.50;28.10;;;;;;2612747;54;20443;-79
2022/11/02 10:48:13;;;;;;;12.33;11.40;;;17.40;27.40;;;;;;2613064;54;21011;-77
2022/11/02 10:51:09;;;;;;;11.23;10.60;;;17.10;25.00;;;;;;2620389;54;20431;-88
2022/11/02 10:53:38;;;;;;;12.17;11.03;;;18.00;25.10;;;;;;2622626;47;20441;-88
2022/11/02 10:56:45;;;;;;;14.10;12.90;;;17.60;24.00;;;;;;2618573;39;21036;-82
2022/11/02 10:59:19;;;;;;;11.90;11.20;;;18.30;24.40;;;;;;2612084;54;20475;-80
2022/11/02 11:01:55;;;;;;;12.57;11.83;;;17.60;24.40;;;;;;2612781;54;20453;-81
2022/11/02 11:04:25;;;;;;;12.30;11.53;;;16.80;23.50;;;;;;2611173;54;20422;-79
2022/11/02 11:06:53;;;;;;;13.40;12.50;;;17.40;23.10;;;;;;2611937;47;20547;-79
2022/11/02 11:09:30;;;;;;;14.07;11.80;;;17.50;22.00;;;;;;2612811;47;20483;-79
2022/11/02 11:12:01;;;;;;;12.03;11.20;;;18.40;21.50;;;;;;2612166;51;20470;-80
2022/11/02 11:14:29;;;;;;;13.33;12.33;;;18.10;20.80;;;;;;2611460;54;20431;-80
2022/11/02 11:16:59;;;;;;;13.67;12.50;;;17.20;22.20;;;;;;2612603;39;20978;-79
2022/11/02 11:19:48;;;;;;;12.53;11.43;;;17.00;22.70;;;;;;2610614;54;20423;-80
2022/11/02 11:22:24;;;;;;;12.30;11.40;;;18.40;22.20;;;;;;2612700;54;20437;-80
2022/11/02 11:24:53;;;;;;;12.87;11.33;;;19.00;21.50;;;;;;2612322;54;20451;-82
2022/11/02 11:27:22;;;;;;;12.70;11.67;;;18.50;19.70;;;;;;2612439;54;20948;-80
2022/11/02 11:29:55;;;;;;;12.87;11.97;;;17.30;20.40;;;;;;2613547;39;20961;-78
2022/11/02 11:32:27;;;;;;;13.47;12.03;;;18.40;20.50;;;;;;2613858;54;20478;-78
2022/11/02 11:35:00;;;;;;;12.70;11.80;;;19.00;19.80;;;;;;2612845;54;20415;-80
2022/11/02 11:37:26;;;;;;;15.20;12.50;;;19.60;19.60;;;;;;2611638;54;20527;-79
2022/11/02 11:40:16;;;;;;;14.43;13.33;;;18.90;17.40;;;;;;2613744;39;20694;-81
2022/11/02 11:42:42;;;;;;;12.60;11.70;;;19.70;17.80;;;;;;2614599;54;20442;-80
2022/11/02 11:45:37;;;;;;;13.43;12.63;;;18.80;17.40;;;;;;2614746;39;20879;-80
2022/11/02 11:48:28;;;;;;;13.80;12.70;;;18.50;16.30;;;;;;2613481;54;20538;-80
2022/11/02 11:50:54;;;;;;;13.03;11.67;;;19.70;17.00;;;;;;2618550;54;20391;-87
2022/11/02 11:53:25;;;;;;;12.63;11.73;;;17.60;18.40;;;;;;2620265;54;20399;-89
2022/11/02 11:55:53;;;;;;;12.83;12.00;;;17.90;18.60;;;;;;2616845;54;20420;-82
2022/11/02 11:58:22;;;;;;;12.73;11.20;;;18.10;17.10;;;;;;2614613;54;20436;-82
2022/11/02 12:01:06;;;;;;;11.53;10.80;;;18.70;17.60;;;;;;2617185;31;20832;-86
2022/11/02 12:03:48;;;;;;;12.47;11.50;;;18.20;19.10;;;;;;2618782;54;20435;-89
2022/11/02 12:06:30;;;;;;;13.53;12.30;;;18.50;19.30;;;;;;2618292;47;20454;-88
2022/11/02 12:09:34;;;;;;;12.53;11.43;;;18.00;18.90;;;;;;2617197;54;20939;-88
2022/11/02 12:12:09;;;;;;;12.83;11.80;;;17.10;19.80;;;;;;2613164;54;20447;-81
2022/11/02 12:14:57;;;;;;;12.70;11.60;;;16.40;20.90;;;;;;2615851;54;20498;-90
2022/11/02 12:17:54;;;;;;;11.70;10.90;;;17.50;18.90;;;;;;2623208;54;20408;-88
2022/11/02 12:20:32;;;;;;;12.47;11.67;;;18.00;16.90;;;;;;2619193;54;20468;-80
2022/11/02 12:23:36;;;;;;;13.13;12.23;;;18.70;16.50;;;;;;2614839;54;20543;-79
2022/11/02 12:26:32;;;;;;;13.30;12.20;;;19.00;17.10;;;;;;2623570;54;20411;-88
2022/11/02 12:29:12;;;;;;;13.10;12.10;;;18.50;18.10;;;;;;2628561;54;20427;-87
2022/11/02 12:31:45;;;;;;;13.60;12.67;;;17.60;16.70;;;;;;2615873;54;20447;-79
2022/11/02 12:34:38;;;;;;;13.00;12.07;;;17.80;17.40;;;;;;2615103;54;20492;-81
2022/11/02 12:37:09;;;;;;;12.50;11.70;;;18.30;16.20;;;;;;2615525;46;20435;-80
2022/11/02 12:40:05;;;;;;;12.90;12.10;;;18.20;18.90;;;;;;2614199;46;20491;-87
2022/11/02 12:42:36;;;;;;;13.30;12.03;;;17.40;19.20;;;;;;2623702;39;20792;-89
2022/11/02 12:45:14;;;;;;;14.27;13.30;;;17.80;21.00;;;;;;2619840;47;20427;-88
2022/11/02 12:47:49;;;;;;;12.63;11.87;;;17.50;22.50;;;;;;2619265;54;20496;-86
2022/11/02 12:50:30;;;;;;;13.03;12.00;;;19.50;20.70;;;;;;2617818;54;20486;-80
2022/11/02 12:53:06;;;;;;;12.80;11.80;;;19.40;20.30;;;;;;2615086;54;20439;-79
2022/11/02 12:55:36;;;;;;;13.97;12.47;;;18.10;19.10;;;;;;2615674;54;20411;-90
2022/11/02 12:58:22;;;;;;;12.43;11.63;;;18.90;21.40;;;;;;2619410;47;20514;-89
2022/11/02 13:01:00;;;;;;;12.57;11.67;;;19.70;19.80;;;;;;2619225;54;20416;-88
2022/11/02 13:03:41;;;;;;;13.23;12.13;;;20.20;18.40;;;;;;2620629;54;20410;-88
2022/11/02 13:06:12;;;;;;;11.43;10.83;;;19.80;17.70;;;;;;2613221;54;20443;-79
2022/11/02 13:08:44;;;;;;;14.30;11.93;;;20.40;18.50;;;;;;2615874;46;20438;-80
2022/11/02 13:11:21;;;;;;;13.27;12.27;;;16.60;22.60;;;;;;2614891;54;20415;-80
2022/11/02 13:13:56;;;;;;;20.63;12.10;;;17.50;23.30;;;;;;2614138;54;20438;-79
2022/11/02 13:16:39;;;;;;;12.20;11.30;;;17.70;22.50;;;;;;2614206;47;20422;-78
2022/11/02 13:19:12;;;;;;;11.40;10.50;;;16.70;21.70;;;;;;2617205;54;20412;-79
2022/11/02 13:21:44;;;;;;;21.43;12.10;;;18.10;20.70;;;;;;2617057;54;20428;-79
2022/11/02 13:24:16;;;;;;;18.37;11.30;;;19.00;19.40;;;;;;2616599;39;20854;-80
2022/11/02 13:26:44;;;;;;;11.90;11.20;;;20.20;18.50;;;;;;2615753;39;20876;-80
2022/11/02 13:29:39;;;;;;;14.40;13.27;;;18.30;19.50;;;;;;2614652;47;20997;-80
2022/11/02 13:32:16;;;;;;;14.30;11.60;;;18.70;20.40;;;;;;2614666;39;20954;-79
2022/11/02 13:34:47;;;;;;;12.40;11.40;;;19.50;20.30;;;;;;2615607;54;20423;-88
2022/11/02 13:37:27;;;;;;;11.97;11.03;;;19.30;18.70;;;;;;2623284;39;20806;-89
2022/11/02 13:40:06;;;;;;;11.93;11.20;;;18.60;17.30;;;;;;2622323;54;20419;-79
2022/11/02 13:42:54;;;;;;;12.13;11.33;;;19.30;16.20;;;;;;2614579;54;20432;-79
2022/11/02 13:45:35;;;;;;;12.30;11.43;;;19.30;17.70;;;;;;2613853;54;20418;-81
2022/11/02 13:48:39;;;;;;;12.27;11.40;;;17.90;18.60;;;;;;2613879;54;20446;-81
2022/11/02 13:51:55;;;;;;;12.30;11.60;;;18.20;19.00;;;;;;2613585;54;20439;-79
2022/11/02 13:54:35;;;;;;;28.83;12.73;;;18.10;19.80;;;;;;2610725;54;20480;-79
2022/11/02 13:57:01;;;;;;;11.77;10.90;;;19.40;19.60;;;;;;2611965;54;20408;-77
2022/11/02 13:59:36;;;;;;;11.57;10.83;;;19.10;19.90;;;;;;2612980;54;20404;-79
2022/11/02 14:02:04;;;;;;;12.43;11.37;;;19.60;19.20;;;;;;2613221;39;20726;-79
2022/11/02 14:04:40;;;;;;;11.90;10.37;;;18.90;20.20;;;;;;2612411;54;20420;-79
2022/11/02 14:07:27;;;;;;;12.20;11.10;;;19.50;20.70;;;;;;2612765;54;20456;-80
2022/11/02 14:10:05;;;;;;;12.87;11.70;;;19.20;20.00;;;;;;2612571;54;20411;-77
2022/11/02 14:12:49;;;;;;;13.17;11.90;;;19.70;20.40;;;;;;2615189;54;20487;-80
2022/11/02 14:15:15;;;;;;;13.37;12.17;;;19.90;19.80;;;;;;2615253;54;20436;-80
2022/11/02 14:17:52;;;;;;;12.83;11.70;;;19.20;20.50;;;;;;2613389;54;20402;-80
2022/11/02 14:20:39;;;;;;;13.00;11.80;;;19.40;21.00;;;;;;2616552;54;20262;-90
2022/11/02 14:23:13;;;;;;;12.83;12.03;;;20.20;20.50;;;;;;2623603;54;20463;-88
2022/11/02 14:25:44;;;;;;;15.47;11.73;;;17.20;23.50;;;;;;2618181;54;20550;-78
2022/11/02 14:28:22;;;;;;;14.43;11.63;;;16.50;25.80;;;;;;2613385;54;20424;-78
2022/11/02 14:30:50;;;;;;;14.23;12.60;;;16.70;27.80;;;;;;2616339;54;21533;-80
2022/11/02 14:33:43;;;;;;;14.20;12.30;;;17.60;26.40;;;;;;2615902;54;20442;-81
2022/11/02 14:36:20;;;;;;;11.80;10.90;;;18.50;23.80;;;;;;2614574;54;20450;-77
2022/11/02 14:38:51;;;;;;;11.70;10.80;;;18.70;23.60;;;;;;2612347;54;20420;-78
2022/11/02 14:41:30;;;;;;;12.63;11.40;;;18.20;24.90;;;;;;2612736;47;20431;-79
2022/11/02 14:44:12;;;;;;;12.63;11.30;;;18.70;24.30;;;;;;2612411;47;20434;-79
2022/11/02 14:46:44;;;;;;;13.10;11.13;;;18.20;24.10;;;;;;2621848;54;20391;-89